Time;durP1;ratioP1;P1;durP2;ratioP2;P2;SDS_P1;SDS_P2;PMS_P1;PMS_P2;Temp;Humidity;BMP_temperature;BMP_pressure;BME280_temperature;BME280_humidity;BME280_pressure;Samples;Min_cycle;Max_cycle;Signal;HPM_P1;HPM_P2
2023/07/14 00:00:24;;;;;;;13.40;11.18;;;15.20;99.90;;;;;;4937031;28;20416;-93
2023/07/14 00:02:53;;;;;;;12.85;10.18;;;15.10;99.90;;;;;;4939336;28;20896;-93
2023/07/14 00:05:20;;;;;;;14.80;12.00;;;15.40;99.90;;;;;;4937645;28;20503;-93
2023/07/14 00:07:59;;;;;;;12.60;11.32;;;15.00;99.90;;;;;;4938590;28;20451;-94
2023/07/14 00:10:33;;;;;;;13.60;12.20;;;15.00;99.90;;;;;;4938778;28;21058;-93
2023/07/14 00:13:02;;;;;;;13.90;11.50;;;15.00;99.90;;;;;;4936927;28;20507;-93
2023/07/14 00:15:31;;;;;;;12.55;10.55;;;15.40;99.90;;;;;;4938979;28;20416;-94
2023/07/14 00:18:02;;;;;;;12.10;10.90;;;15.50;99.90;;;;;;4936471;28;20447;-93
2023/07/14 00:20:30;;;;;;;16.23;13.38;;;14.90;99.90;;;;;;4938540;28;20412;-92
2023/07/14 00:22:57;;;;;;;15.88;13.55;;;15.00;99.90;;;;;;4937731;28;20429;-92
2023/07/14 00:25:24;;;;;;;15.32;13.73;;;15.40;99.90;;;;;;4937454;28;20428;-93
2023/07/14 00:27:52;;;;;;;14.05;12.15;;;15.00;99.90;;;;;;4938445;28;20889;-93
2023/07/14 00:30:20;;;;;;;13.25;11.85;;;15.20;99.90;;;;;;4936108;28;20419;-93
2023/07/14 00:32:47;;;;;;;16.00;14.30;;;15.40;99.90;;;;;;4938226;28;20428;-93
2023/07/14 00:35:27;;;;;;;15.73;13.82;;;15.20;99.90;;;;;;4936357;28;20415;-92
2023/07/14 00:37:55;;;;;;;16.05;13.50;;;15.20;99.90;;;;;;4938113;28;20427;-93
2023/07/14 00:40:30;;;;;;;14.73;13.18;;;15.30;99.90;;;;;;4937511;28;20416;-94
2023/07/14 00:42:58;;;;;;;15.63;14.02;;;15.20;99.90;;;;;;4936808;28;20483;-92
2023/07/14 00:45:29;;;;;;;15.85;14.10;;;15.00;99.90;;;;;;4938313;28;20416;-93
2023/07/14 00:48:03;;;;;;;14.00;12.52;;;15.30;99.90;;;;;;4935857;28;20424;-93
2023/07/14 00:50:51;;;;;;;16.35;14.55;;;15.10;99.90;;;;;;4938503;28;20519;-93
2023/07/14 00:53:36;;;;;;;15.82;14.15;;;15.30;99.90;;;;;;4937684;28;20475;-93
2023/07/14 00:56:12;;;;;;;16.60;14.88;;;15.20;99.90;;;;;;4935479;28;20410;-93
2023/07/14 00:58:45;;;;;;;12.60;11.40;;;15.70;99.90;;;;;;4937935;28;20811;-93
2023/07/14 01:01:25;;;;;;;14.60;13.20;;;15.70;99.90;;;;;;4935876;28;20776;-93
2023/07/14 01:03:59;;;;;;;16.55;14.80;;;15.80;99.90;;;;;;4937199;28;20456;-93
2023/07/14 01:06:39;;;;;;;16.00;14.40;;;15.30;99.90;;;;;;4937770;28;20416;-93
2023/07/14 01:09:13;;;;;;;17.40;15.60;;;15.50;99.90;;;;;;4935841;28;20416;-93
2023/07/14 01:11:45;;;;;;;17.42;15.30;;;15.40;99.90;;;;;;4937977;28;20530;-92
2023/07/14 01:14:26;;;;;;;17.65;15.68;;;15.40;99.90;;;;;;4935853;28;20416;-92
2023/07/14 01:16:54;;;;;;;18.42;15.93;;;15.30;99.90;;;;;;4937468;28;20919;-93
2023/07/14 01:19:43;;;;;;;17.10;15.40;;;15.50;99.90;;;;;;4937688;28;20763;-93
2023/07/14 01:22:34;;;;;;;18.70;16.73;;;15.20;99.90;;;;;;4935663;28;20416;-94
2023/07/14 01:25:23;;;;;;;17.25;15.52;;;15.20;99.90;;;;;;4937636;28;20413;-92
2023/07/14 01:27:49;;;;;;;19.58;16.70;;;15.00;99.90;;;;;;4936862;28;20420;-93
2023/07/14 01:30:17;;;;;;;18.38;16.48;;;15.30;99.90;;;;;;4936060;28;20503;-94
2023/07/14 01:32:46;;;;;;;20.98;17.85;;;15.40;99.90;;;;;;4936986;28;20523;-93
2023/07/14 01:35:14;;;;;;;19.33;17.33;;;15.00;99.90;;;;;;4935360;28;20408;-93
2023/07/14 01:37:39;;;;;;;19.33;17.45;;;14.90;99.90;;;;;;4937511;28;20870;-93
2023/07/14 01:40:15;;;;;;;20.25;18.10;;;15.50;99.90;;;;;;4935073;28;20408;-93
2023/07/14 01:42:44;;;;;;;20.53;17.83;;;15.10;99.90;;;;;;4936785;28;20950;-92
2023/07/14 01:45:16;;;;;;;19.85;17.83;;;15.50;99.90;;;;;;4936297;28;20424;-93
2023/07/14 01:47:49;;;;;;;18.77;16.88;;;15.10;99.90;;;;;;4935649;28;20475;-93
2023/07/14 01:50:31;;;;;;;20.67;18.55;;;15.20;99.90;;;;;;4937422;28;20569;-93
2023/07/14 01:53:03;;;;;;;20.45;18.23;;;15.10;99.90;;;;;;4934439;28;20439;-93
2023/07/14 01:55:34;;;;;;;19.98;18.00;;;15.40;99.90;;;;;;4936618;28;20487;-93
2023/07/14 01:58:07;;;;;;;19.97;17.97;;;15.40;99.90;;;;;;4935881;28;20417;-93
2023/07/14 02:00:35;;;;;;;19.52;17.42;;;15.90;99.90;;;;;;4935325;28;20486;-92
2023/07/14 02:03:03;;;;;;;17.67;16.02;;;15.00;99.90;;;;;;4936740;28;20490;-93
2023/07/14 02:05:35;;;;;;;19.95;17.85;;;15.10;99.90;;;;;;4934555;28;20408;-94
2023/07/14 02:08:04;;;;;;;19.50;17.42;;;15.50;99.90;;;;;;4936241;28;20416;-93
2023/07/14 02:10:31;;;;;;;18.67;16.70;;;15.10;99.90;;;;;;4934763;28;20451;-94
2023/07/14 02:12:59;;;;;;;16.57;14.90;;;15.20;99.90;;;;;;4935928;28;20844;-93
2023/07/14 02:15:33;;;;;;;17.67;15.85;;;15.40;99.90;;;;;;4936307;28;20757;-94
2023/07/14 02:18:00;;;;;;;17.10;15.30;;;15.00;99.90;;;;;;4934976;28;20447;-94
2023/07/14 02:20:36;;;;;;;17.58;15.68;;;15.30;99.90;;;;;;4936247;28;20412;-94
2023/07/14 02:23:05;;;;;;;16.85;15.15;;;15.10;99.90;;;;;;4934568;28;20428;-94
2023/07/14 02:25:44;;;;;;;16.20;14.60;;;15.10;99.90;;;;;;4936644;28;20487;-93
2023/07/14 02:28:10;;;;;;;19.65;17.00;;;15.00;99.90;;;;;;4934976;28;20507;-94
2023/07/14 02:30:38;;;;;;;18.92;15.52;;;15.10;99.90;;;;;;4935366;28;20503;-92
2023/07/14 02:33:23;;;;;;;17.88;15.73;;;14.90;99.90;;;;;;4935803;28;20754;-92
2023/07/14 02:36:08;;;;;;;17.45;15.65;;;15.10;99.90;;;;;;4934162;28;20840;-93
2023/07/14 02:38:34;;;;;;;18.40;16.55;;;14.80;99.90;;;;;;4936476;28;20482;-93
2023/07/14 02:41:10;;;;;;;16.88;15.07;;;14.90;99.90;;;;;;4934931;28;20428;-93
2023/07/14 02:43:36;;;;;;;17.45;15.20;;;14.70;99.90;;;;;;4935174;28;20464;-92
2023/07/14 02:46:14;;;;;;;17.25;15.45;;;14.60;99.90;;;;;;4936483;28;20455;-94
2023/07/14 02:48:46;;;;;;;17.08;15.32;;;14.90;99.90;;;;;;4934042;28;20496;-94
2023/07/14 02:51:12;;;;;;;17.00;15.00;;;14.60;99.90;;;;;;4936437;28;20506;-93
2023/07/14 02:53:38;;;;;;;17.52;15.77;;;14.60;99.90;;;;;;4934212;28;20506;-93
2023/07/14 02:56:05;;;;;;;17.27;15.48;;;14.50;99.90;;;;;;4936024;28;20430;-93
2023/07/14 02:58:33;;;;;;;19.00;16.17;;;14.40;99.90;;;;;;4935244;28;20422;-93
2023/07/14 03:00:59;;;;;;;17.17;15.32;;;14.70;99.90;;;;;;4935057;28;20420;-93
2023/07/14 03:03:26;;;;;;;17.90;16.00;;;14.80;99.90;;;;;;4935995;28;20404;-93
2023/07/14 03:05:52;;;;;;;18.02;15.38;;;14.10;99.90;;;;;;4934696;28;20752;-94
2023/07/14 03:08:18;;;;;;;17.63;15.00;;;14.50;99.90;;;;;;4936356;28;20471;-93
2023/07/14 03:10:47;;;;;;;14.57;13.10;;;14.40;99.90;;;;;;4933584;28;20412;-94
2023/07/14 03:13:16;;;;;;;16.47;14.57;;;14.70;99.90;;;;;;4936230;28;20824;-92
2023/07/14 03:15:43;;;;;;;18.60;15.53;;;14.50;99.90;;;;;;4934725;28;20424;-93
2023/07/14 03:18:09;;;;;;;17.02;14.90;;;14.60;99.90;;;;;;4935849;28;20420;-93
2023/07/14 03:20:37;;;;;;;17.23;14.95;;;14.40;99.90;;;;;;4937998;28;20411;-93
2023/07/14 03:23:04;;;;;;;18.57;14.73;;;14.30;99.90;;;;;;4937790;28;20765;-93
2023/07/14 03:25:30;;;;;;;15.30;13.60;;;14.50;99.90;;;;;;4939575;28;20419;-93
2023/07/14 03:27:55;;;;;;;17.73;15.00;;;14.50;99.90;;;;;;4937289;28;20549;-94
2023/07/14 03:30:21;;;;;;;16.13;12.68;;;14.70;99.90;;;;;;4939852;28;20411;-93
2023/07/14 03:32:50;;;;;;;15.95;14.18;;;14.30;99.90;;;;;;4937977;28;20436;-93
2023/07/14 03:35:18;;;;;;;14.90;13.27;;;14.30;99.90;;;;;;4939382;28;20411;-93
2023/07/14 03:37:45;;;;;;;17.45;14.52;;;14.50;99.90;;;;;;4939143;28;20412;-94
2023/07/14 03:40:11;;;;;;;15.57;13.53;;;14.40;99.90;;;;;;4937294;28;20893;-93
2023/07/14 03:42:38;;;;;;;17.13;13.90;;;14.50;99.90;;;;;;4939378;28;20443;-92
2023/07/14 03:45:06;;;;;;;17.70;14.20;;;14.40;99.90;;;;;;4936632;28;20878;-95
2023/07/14 03:47:32;;;;;;;16.20;14.55;;;14.20;99.90;;;;;;4938083;28;20413;-92
2023/07/14 03:49:58;;;;;;;17.52;13.63;;;14.40;99.90;;;;;;4936326;28;20423;-92
2023/07/14 03:52:24;;;;;;;17.10;14.70;;;14.40;99.90;;;;;;4937584;28;20435;-93
2023/07/14 03:54:50;;;;;;;16.33;13.77;;;14.10;99.90;;;;;;4937683;28;20405;-93
2023/07/14 03:57:16;;;;;;;14.55;12.98;;;14.50;99.90;;;;;;4937925;28;20439;-93
2023/07/14 03:59:42;;;;;;;14.45;12.90;;;14.40;99.90;;;;;;4939220;28;20439;-93
2023/07/14 04:02:08;;;;;;;17.90;13.32;;;14.60;99.90;;;;;;4937272;28;20896;-93
2023/07/14 04:04:34;;;;;;;14.57;13.07;;;14.60;99.90;;;;;;4939366;28;20424;-93
2023/07/14 04:07:00;;;;;;;15.85;12.30;;;14.60;99.90;;;;;;4937340;28;20416;-93
2023/07/14 04:09:26;;;;;;;16.23;12.10;;;15.00;99.90;;;;;;4939209;28;20503;-93
2023/07/14 04:11:52;;;;;;;14.88;11.70;;;14.40;99.90;;;;;;4937115;28;20442;-94
2023/07/14 04:14:17;;;;;;;14.65;11.48;;;14.40;99.90;;;;;;4938658;28;20528;-94
2023/07/14 04:16:43;;;;;;;14.50;11.20;;;14.50;99.90;;;;;;4938528;28;20416;-94
2023/07/14 04:19:09;;;;;;;12.98;11.18;;;14.70;99.90;;;;;;4936990;28;20416;-94
2023/07/14 04:21:35;;;;;;;13.17;10.80;;;14.40;99.90;;;;;;4938881;28;20426;-93
2023/07/14 04:24:01;;;;;;;13.77;11.30;;;14.40;99.90;;;;;;4936712;28;20419;-94
2023/07/14 04:26:29;;;;;;;14.02;11.40;;;14.30;99.90;;;;;;4939113;28;20767;-92
2023/07/14 04:28:55;;;;;;;14.32;11.10;;;14.80;99.90;;;;;;4936797;28;20404;-93
2023/07/14 04:31:21;;;;;;;14.65;11.05;;;14.90;99.90;;;;;;4937410;28;20436;-93
2023/07/14 04:33:49;;;;;;;15.32;10.45;;;14.90;99.90;;;;;;4938130;28;20416;-93
2023/07/14 04:36:15;;;;;;;14.70;10.88;;;14.70;99.90;;;;;;4937152;28;20424;-93
2023/07/14 04:38:58;;;;;;;13.88;10.50;;;14.90;99.90;;;;;;4938611;28;20470;-93
2023/07/14 04:41:24;;;;;;;13.23;10.27;;;14.80;99.90;;;;;;4936227;28;20930;-93
2023/07/14 04:43:50;;;;;;;13.73;10.48;;;15.00;99.90;;;;;;4938396;28;20408;-93
2023/07/14 04:46:15;;;;;;;13.98;10.23;;;15.20;99.90;;;;;;4936846;28;20763;-93
2023/07/14 04:48:41;;;;;;;12.95;10.02;;;15.00;99.90;;;;;;4938082;28;20420;-92
2023/07/14 04:51:07;;;;;;;14.47;9.93;;;15.10;99.90;;;;;;4937874;28;20484;-92
2023/07/14 04:53:35;;;;;;;12.95;9.75;;;15.20;99.90;;;;;;4936152;29;20460;-94
2023/07/14 04:56:43;;;;;;;12.57;9.33;;;15.20;99.90;;;;;;5056926;23;20497;-95
2023/07/14 04:59:36;;;;;;;13.82;10.18;;;15.30;99.90;;;;;;4899130;29;20989;-95
2023/07/14 05:02:50;;;;;;;;;;;;;;;;;;;;;
2023/07/14 05:05:41;;;;;;;12.02;9.13;;;15.50;99.90;;;;;;4937329;29;20424;-95
2023/07/14 05:11:45;;;;;;;;;;;;;;;;;;;;;
2023/07/14 05:14:17;;;;;;;10.40;7.43;;;16.40;99.90;;;;;;4895985;29;20417;-94
2023/07/14 05:16:54;;;;;;;10.68;7.15;;;16.00;99.90;;;;;;4890954;29;20429;-95
2023/07/14 05:20:01;;;;;;;10.48;6.72;;;16.20;99.90;;;;;;4889966;29;20429;-95
2023/07/14 05:22:32;;;;;;;10.52;6.45;;;16.30;99.90;;;;;;4834994;29;20439;-95
2023/07/14 05:25:53;;;;;;;;;;;;;;;;;;;;;
2023/07/14 05:28:37;;;;;;;10.20;5.78;;;16.60;99.90;;;;;;4900717;29;20434;-94
2023/07/14 05:31:35;;;;;;;9.77;5.43;;;16.90;99.90;;;;;;4893732;29;20532;-94
2023/07/14 05:34:27;;;;;;;9.95;5.35;;;16.50;99.90;;;;;;4868255;29;20521;-95
2023/07/14 05:36:58;;;;;;;9.43;5.15;;;17.00;99.90;;;;;;4843826;29;20587;-95
2023/07/14 05:39:25;;;;;;;8.83;4.80;;;17.40;99.90;;;;;;4852306;29;20803;-94
2023/07/14 05:41:51;;;;;;;7.93;4.75;;;16.80;99.90;;;;;;4860503;29;20423;-94
2023/07/14 05:44:20;;;;;;;6.97;4.60;;;17.30;99.90;;;;;;4891809;29;20447;-95
2023/07/14 05:46:46;;;;;;;7.60;4.50;;;17.40;99.90;;;;;;4905366;29;20430;-94
2023/07/14 05:49:14;;;;;;;9.10;5.45;;;17.90;99.90;;;;;;4904103;29;20411;-95
2023/07/14 05:52:03;;;;;;;9.85;6.55;;;17.60;99.90;;;;;;4907494;29;20450;-95
2023/07/14 05:54:29;;;;;;;11.35;6.57;;;17.70;99.90;;;;;;4883143;29;20419;-95
2023/07/14 05:56:55;;;;;;;9.93;5.82;;;17.80;99.90;;;;;;4921063;29;20421;-95
2023/07/14 05:59:21;;;;;;;9.75;5.72;;;17.70;99.90;;;;;;4919627;29;20501;-95
2023/07/14 06:02:26;;;;;;;8.32;5.20;;;18.00;99.90;;;;;;4920763;29;20453;-95
2023/07/14 06:05:00;;;;;;;11.07;5.22;;;18.20;99.90;;;;;;4903801;29;21223;-96
2023/07/14 06:07:26;;;;;;;8.57;4.75;;;18.20;99.90;;;;;;4901075;29;20422;-94
2023/07/14 06:09:54;;;;;;;8.30;4.68;;;18.70;99.90;;;;;;4901258;29;20895;-95
2023/07/14 06:29:46;;;;;;;9.38;3.80;;;19.10;99.90;;;;;;4934287;29;20435;-95
2023/07/14 06:32:15;;;;;;;7.28;3.60;;;19.20;99.90;;;;;;4922344;29;20431;-96
2023/07/14 06:38:30;;;;;;;7.03;3.28;;;19.50;99.90;;;;;;4827216;29;20768;-94
2023/07/14 06:41:00;;;;;;;9.65;3.80;;;19.60;99.90;;;;;;4802048;29;20469;-94
2023/07/14 06:43:28;;;;;;;7.80;3.17;;;19.80;99.90;;;;;;4884144;29;20972;-94
2023/07/14 06:45:54;;;;;;;7.00;3.40;;;19.60;99.90;;;;;;4896652;29;20431;-94
2023/07/14 06:48:20;;;;;;;7.47;2.80;;;20.10;99.90;;;;;;4898443;29;20415;-94
2023/07/14 06:50:49;;;;;;;7.55;2.95;;;19.70;99.90;;;;;;4896474;29;20412;-95
2023/07/14 06:53:15;;;;;;;10.20;3.25;;;20.20;99.90;;;;;;4898935;29;20836;-95
2023/07/14 06:55:43;;;;;;;7.67;2.70;;;19.70;99.90;;;;;;4896516;29;20411;-93
2023/07/14 06:58:09;;;;;;;8.48;2.88;;;20.00;99.90;;;;;;4898600;29;20772;-94
2023/07/14 07:00:36;;;;;;;7.63;2.85;;;20.60;99.90;;;;;;4898005;29;20595;-95
2023/07/14 07:03:03;;;;;;;7.18;3.20;;;20.60;99.90;;;;;;4896369;29;20520;-93
2023/07/14 07:05:29;;;;;;;7.00;3.10;;;20.30;99.90;;;;;;4898624;29;20792;-93
2023/07/14 07:07:55;;;;;;;8.88;3.00;;;20.70;99.90;;;;;;4896024;29;20977;-93
2023/07/14 07:10:22;;;;;;;5.93;3.15;;;20.50;99.90;;;;;;4898947;29;20880;-93
2023/07/14 07:12:48;;;;;;;8.00;3.28;;;20.80;99.90;;;;;;4895807;29;20448;-94
2023/07/14 07:15:14;;;;;;;6.20;3.27;;;20.60;99.90;;;;;;4899109;29;20419;-94
2023/07/14 07:17:42;;;;;;;7.65;3.88;;;20.40;99.90;;;;;;4897780;29;20424;-95
2023/07/14 07:20:08;;;;;;;7.68;3.55;;;20.50;99.90;;;;;;4897303;29;20427;-93
2023/07/14 07:22:35;;;;;;;8.18;3.47;;;20.50;99.90;;;;;;4898533;29;20479;-94
2023/07/14 07:25:02;;;;;;;9.00;3.70;;;20.60;99.90;;;;;;4895737;29;20479;-93
2023/07/14 07:27:28;;;;;;;9.70;4.18;;;20.60;99.90;;;;;;4898571;29;20523;-95
2023/07/14 07:29:54;;;;;;;7.53;4.00;;;20.70;99.90;;;;;;4895187;29;20447;-93
2023/07/14 07:32:20;;;;;;;6.90;3.80;;;20.80;99.90;;;;;;4898355;29;20521;-94
2023/07/14 07:34:46;;;;;;;7.75;4.18;;;21.10;99.90;;;;;;4896615;29;20515;-94
2023/07/14 07:37:12;;;;;;;7.50;3.97;;;20.50;99.90;;;;;;4897360;29;20518;-95
2023/07/14 07:39:39;;;;;;;7.07;3.80;;;21.20;99.90;;;;;;4897984;29;20419;-94
2023/07/14 07:42:06;;;;;;;7.63;3.67;;;21.30;99.90;;;;;;4896251;29;20415;-93
2023/07/14 07:44:33;;;;;;;7.55;3.97;;;21.20;99.90;;;;;;4898136;29;20404;-93
2023/07/14 07:46:59;;;;;;;7.73;4.00;;;21.20;99.90;;;;;;4895819;29;20895;-93
2023/07/14 07:49:26;;;;;;;6.93;3.65;;;21.30;99.90;;;;;;4898757;29;20424;-94
2023/07/14 07:51:52;;;;;;;7.63;3.20;;;21.70;99.90;;;;;;4896350;29;20436;-95
2023/07/14 07:54:18;;;;;;;4.83;3.10;;;21.40;99.90;;;;;;4898968;29;20507;-92
2023/07/14 07:56:45;;;;;;;7.40;3.50;;;21.60;99.90;;;;;;4897296;29;20423;-94
2023/07/14 07:59:15;;;;;;;5.50;2.97;;;21.50;99.90;;;;;;4896397;29;20416;-93
2023/07/14 08:01:47;;;;;;;4.45;2.60;;;21.50;99.80;;;;;;4897988;29;20434;-93
2023/07/14 08:04:15;;;;;;;5.78;3.25;;;21.40;98.50;;;;;;4895519;29;20918;-94
2023/07/14 08:06:41;;;;;;;6.37;3.13;;;21.70;97.10;;;;;;4898612;29;20411;-94
2023/07/14 08:09:09;;;;;;;5.20;2.60;;;21.60;95.90;;;;;;4899453;29;20415;-93
2023/07/14 08:11:35;;;;;;;4.53;2.28;;;21.80;98.80;;;;;;4901118;29;20672;-93
2023/07/14 08:14:02;;;;;;;4.75;2.88;;;21.50;99.00;;;;;;4900086;29;20443;-93
2023/07/14 08:16:29;;;;;;;5.45;2.58;;;21.50;98.60;;;;;;4900422;29;20415;-94
2023/07/14 08:18:55;;;;;;;5.28;2.50;;;22.20;99.90;;;;;;4901397;29;20451;-93
2023/07/14 08:21:22;;;;;;;3.97;2.08;;;22.00;96.00;;;;;;4898364;29;21258;-94
2023/07/14 08:23:48;;;;;;;4.20;2.30;;;21.80;97.50;;;;;;4901244;29;20424;-94
2023/07/14 08:26:14;;;;;;;4.20;2.10;;;21.90;96.20;;;;;;4898221;29;20416;-93
2023/07/14 08:28:40;;;;;;;3.53;1.67;;;22.20;96.80;;;;;;4900487;29;20928;-94
2023/07/14 08:31:10;;;;;;;5.13;2.20;;;21.80;93.80;;;;;;4914739;29;20424;-94
2023/07/14 08:33:36;;;;;;;4.27;2.13;;;22.00;94.30;;;;;;4900420;29;20434;-94
2023/07/14 08:36:04;;;;;;;4.60;1.75;;;21.90;95.30;;;;;;4900990;29;20442;-94
2023/07/14 08:38:34;;;;;;;4.80;1.85;;;22.30;94.20;;;;;;4898580;29;20416;-94
2023/07/14 08:41:28;;;;;;;4.43;1.70;;;22.50;91.40;;;;;;4900794;29;20425;-94
2023/07/14 08:44:17;;;;;;;2.92;1.30;;;22.40;86.80;;;;;;4899071;29;20430;-94
2023/07/14 08:47:06;;;;;;;3.77;1.80;;;22.20;72.80;;;;;;4900378;29;20482;-94
2023/07/14 08:49:49;;;;;;;3.80;1.67;;;21.80;85.70;;;;;;4901079;29;20412;-94
2023/07/14 08:52:24;;;;;;;3.30;1.83;;;21.50;88.00;;;;;;4897578;29;20499;-94
2023/07/14 08:55:14;;;;;;;4.82;2.10;;;21.40;91.60;;;;;;4900466;29;20435;-95
2023/07/14 08:57:55;;;;;;;3.70;1.80;;;21.30;93.10;;;;;;4900188;29;20510;-94
2023/07/14 09:00:36;;;;;;;3.65;1.63;;;21.40;93.20;;;;;;4897864;29;20427;-94
2023/07/14 09:03:18;;;;;;;5.05;1.67;;;21.50;91.60;;;;;;4900175;29;20435;-94
2023/07/14 09:05:54;;;;;;;3.67;1.38;;;21.70;98.10;;;;;;4898076;29;20479;-95
2023/07/14 09:08:27;;;;;;;4.63;1.67;;;22.00;98.40;;;;;;4899312;29;20925;-96
2023/07/14 09:11:19;;;;;;;3.70;1.70;;;22.40;91.30;;;;;;4900111;29;20424;-94
2023/07/14 09:13:51;;;;;;;4.85;1.58;;;22.80;83.10;;;;;;4898160;29;20447;-95
2023/07/14 09:16:20;;;;;;;3.45;1.35;;;22.90;75.40;;;;;;4899182;29;20419;-93
2023/07/14 09:19:05;;;;;;;3.92;1.25;;;23.20;75.20;;;;;;4896391;29;20480;-94
2023/07/14 09:21:58;;;;;;;4.72;1.35;;;23.30;73.90;;;;;;4898477;29;20641;-90
2023/07/14 09:24:40;;;;;;;4.07;1.70;;;23.50;69.50;;;;;;4899848;29;20416;-91
2023/07/14 09:27:16;;;;;;;4.20;1.52;;;23.70;68.40;;;;;;4897236;29;20428;-92
2023/07/14 09:29:44;;;;;;;3.53;1.30;;;23.80;73.70;;;;;;4914818;29;20520;-92
2023/07/14 09:32:24;;;;;;;4.07;1.73;;;24.00;83.10;;;;;;4887104;29;20531;-92
2023/07/14 09:34:54;;;;;;;3.47;1.37;;;24.20;78.10;;;;;;4902344;29;20421;-89
2023/07/14 09:37:26;;;;;;;3.38;1.30;;;24.40;75.50;;;;;;4881089;29;20425;-91
2023/07/14 09:40:18;;;;;;;3.75;1.33;;;24.30;73.40;;;;;;4882067;29;20489;-93
2023/07/14 09:42:53;;;;;;;3.20;1.20;;;24.10;63.30;;;;;;4885029;29;20852;-91
2023/07/14 09:45:21;;;;;;;5.20;1.50;;;24.10;69.80;;;;;;4879745;29;20428;-89
2023/07/14 09:47:53;;;;;;;4.45;1.10;;;24.10;65.70;;;;;;4893909;29;20958;-90
2023/07/14 09:50:19;;;;;;;4.83;1.60;;;24.20;67.10;;;;;;4911260;29;20429;-89
2023/07/14 09:52:51;;;;;;;3.10;1.30;;;24.50;75.20;;;;;;4909214;29;20441;-91
2023/07/14 09:55:19;;;;;;;5.28;2.00;;;24.00;65.50;;;;;;4911189;29;20470;-90
2023/07/14 09:57:46;;;;;;;3.10;1.33;;;24.10;66.60;;;;;;4878370;29;20512;-89
2023/07/14 10:00:24;;;;;;;4.90;1.70;;;24.40;64.20;;;;;;4894977;29;20429;-92
2023/07/14 10:03:16;;;;;;;5.18;1.63;;;23.90;62.20;;;;;;4880906;29;20425;-90
2023/07/14 10:05:57;;;;;;;5.07;1.73;;;23.50;70.60;;;;;;4878732;29;20425;-90
2023/07/14 10:08:31;;;;;;;4.55;1.95;;;23.70;81.50;;;;;;4880212;29;20524;-91
2023/07/14 10:11:19;;;;;;;4.50;2.00;;;24.00;87.80;;;;;;4889876;29;20424;-90
2023/07/14 10:13:52;;;;;;;5.10;2.50;;;24.10;66.40;;;;;;4891102;29;20441;-90
2023/07/14 10:16:20;;;;;;;5.20;2.27;;;24.00;70.50;;;;;;4886788;29;20413;-91
2023/07/14 10:19:11;;;;;;;4.72;2.20;;;24.20;72.40;;;;;;4900950;29;20548;-88
2023/07/14 10:21:38;;;;;;;4.25;1.88;;;23.60;69.80;;;;;;4926213;29;20912;-90
2023/07/14 10:24:14;;;;;;;4.18;2.47;;;23.40;74.20;;;;;;4879685;29;20425;-88
2023/07/14 10:26:54;;;;;;;4.43;2.17;;;23.30;68.80;;;;;;4877211;29;20958;-91
2023/07/14 10:29:22;;;;;;;6.20;2.15;;;23.20;76.30;;;;;;4878132;29;20512;-89
2023/07/14 10:31:57;;;;;;;4.57;2.40;;;23.20;79.50;;;;;;4876607;29;20488;-90
2023/07/14 10:34:52;;;;;;;5.65;2.50;;;23.60;78.50;;;;;;4878917;29;20512;-92
2023/07/14 10:37:26;;;;;;;5.20;2.72;;;24.30;79.50;;;;;;4893801;29;20429;-90
2023/07/14 10:39:57;;;;;;;6.20;2.90;;;24.40;65.30;;;;;;4891894;29;20428;-91
2023/07/14 10:42:29;;;;;;;7.13;2.93;;;24.60;66.00;;;;;;4879386;29;20497;-91
2023/07/14 10:44:57;;;;;;;3.55;2.53;;;24.00;69.50;;;;;;4877726;29;20908;-90
2023/07/14 10:47:58;;;;;;;5.37;2.60;;;23.80;74.40;;;;;;4879586;29;20424;-91
2023/07/14 10:50:30;;;;;;;4.87;2.40;;;23.70;68.10;;;;;;4897398;29;20944;-90
2023/07/14 10:53:14;;;;;;;4.28;2.50;;;23.70;67.30;;;;;;4927358;29;20488;-91
2023/07/14 10:55:42;;;;;;;5.53;2.30;;;23.70;71.70;;;;;;4929613;29;20902;-90
2023/07/14 10:58:44;;;;;;;3.72;2.10;;;23.60;68.50;;;;;;4912515;29;20431;-90
2023/07/14 11:01:25;;;;;;;4.22;2.03;;;23.70;72.70;;;;;;4856957;29;20790;-89
2023/07/14 11:04:02;;;;;;;5.05;2.50;;;23.80;69.00;;;;;;4930221;29;21224;-91
2023/07/14 11:06:29;;;;;;;3.17;1.90;;;24.00;65.60;;;;;;4896414;29;21006;-91
2023/07/14 11:08:57;;;;;;;3.95;1.75;;;24.20;65.00;;;;;;4898395;29;20411;-93
2023/07/14 11:11:39;;;;;;;4.20;1.80;;;24.00;66.10;;;;;;4885084;29;20504;-91
2023/07/14 11:14:11;;;;;;;4.60;1.90;;;24.20;64.20;;;;;;4874399;29;20465;-89
2023/07/14 11:16:50;;;;;;;3.50;2.00;;;24.20;63.90;;;;;;4896980;29;20970;-92
2023/07/14 11:19:33;;;;;;;4.75;2.10;;;24.20;63.70;;;;;;4895799;29;20447;-91
2023/07/14 11:22:19;;;;;;;4.55;2.17;;;24.30;67.70;;;;;;4910233;29;20477;-91
2023/07/14 11:25:14;;;;;;;5.55;1.90;;;24.70;58.20;;;;;;4877127;29;20417;-90
2023/07/14 11:28:05;;;;;;;3.65;2.03;;;25.40;67.20;;;;;;4876430;29;20512;-89
2023/07/14 11:30:39;;;;;;;3.40;1.80;;;26.10;59.70;;;;;;4860436;29;21002;-91
2023/07/14 11:33:32;;;;;;;3.50;1.70;;;26.80;55.00;;;;;;4874876;29;20442;-91
2023/07/14 11:36:07;;;;;;;4.18;2.17;;;27.30;54.20;;;;;;4857583;29;20455;-90
2023/07/14 11:38:46;;;;;;;3.13;1.98;;;27.90;50.40;;;;;;4859998;29;20995;-91
2023/07/14 11:41:14;;;;;;;5.28;2.67;;;28.20;48.00;;;;;;4859670;29;20872;-90
2023/07/14 11:43:41;;;;;;;3.80;2.28;;;28.40;48.30;;;;;;4888908;29;20504;-90
2023/07/14 11:46:13;;;;;;;3.90;2.08;;;28.60;49.10;;;;;;4896641;29;20452;-89
2023/07/14 11:48:59;;;;;;;4.40;2.23;;;28.70;50.10;;;;;;4895582;29;20448;-90
2023/07/14 11:51:51;;;;;;;4.13;2.60;;;28.60;49.00;;;;;;4897184;29;20500;-91
2023/07/14 11:54:39;;;;;;;4.63;2.65;;;28.20;49.00;;;;;;4879998;29;20846;-89
2023/07/14 11:57:08;;;;;;;5.53;2.60;;;28.10;50.00;;;;;;4888536;29;20494;-91
2023/07/14 11:59:36;;;;;;;6.03;3.10;;;28.20;48.50;;;;;;4908163;29;20439;-90
2023/07/14 12:02:24;;;;;;;5.03;2.97;;;28.50;50.20;;;;;;4875346;29;20468;-90
2023/07/14 12:05:18;;;;;;;5.00;2.85;;;28.60;47.60;;;;;;4895288;29;20429;-89
2023/07/14 12:08:22;;;;;;;5.85;2.65;;;28.60;48.60;;;;;;4878270;29;20464;-87
2023/07/14 12:10:49;;;;;;;5.40;2.70;;;28.50;48.20;;;;;;4873662;29;21075;-89
2023/07/14 12:13:37;;;;;;;5.18;2.70;;;28.40;47.70;;;;;;4907789;29;20494;-89
2023/07/14 12:16:22;;;;;;;5.00;2.63;;;28.40;49.40;;;;;;4861072;29;20525;-90
2023/07/14 12:18:57;;;;;;;4.82;2.53;;;28.10;50.40;;;;;;4861152;29;20413;-89
2023/07/14 12:21:44;;;;;;;6.53;3.10;;;28.00;51.10;;;;;;4876049;29;20431;-90
2023/07/14 12:24:17;;;;;;;4.03;2.75;;;28.00;50.40;;;;;;4892104;29;20439;-90
2023/07/14 12:27:01;;;;;;;6.30;2.70;;;27.60;51.80;;;;;;4893758;29;20423;-90
2023/07/14 12:29:28;;;;;;;4.80;2.50;;;27.30;51.20;;;;;;4888461;29;20516;-88
2023/07/14 12:31:56;;;;;;;5.63;3.08;;;27.20;52.30;;;;;;4912071;29;20471;-90
2023/07/14 12:34:31;;;;;;;5.60;3.10;;;26.90;49.10;;;;;;4881527;29;20425;-89
2023/07/14 12:36:59;;;;;;;6.00;2.92;;;26.80;49.20;;;;;;4879215;29;20484;-89
2023/07/14 12:39:25;;;;;;;4.70;3.05;;;26.80;49.70;;;;;;4881069;29;20905;-88
2023/07/14 12:41:53;;;;;;;5.60;3.50;;;26.70;50.20;;;;;;4879247;29;20422;-89
2023/07/14 12:44:34;;;;;;;6.22;3.03;;;26.70;50.40;;;;;;4896912;29;20425;-91
2023/07/14 12:47:00;;;;;;;6.53;3.90;;;26.60;52.30;;;;;;4881421;29;20847;-88
2023/07/14 12:49:32;;;;;;;7.70;3.67;;;26.50;53.10;;;;;;4879477;29;20843;-90
2023/07/14 12:52:15;;;;;;;6.55;3.10;;;26.30;53.40;;;;;;4881610;29;20448;-89
2023/07/14 12:54:46;;;;;;;7.43;3.47;;;26.30;58.80;;;;;;4880074;29;20473;-89
2023/07/14 12:57:16;;;;;;;6.00;3.72;;;26.30;61.00;;;;;;4881593;29;20776;-91
2023/07/14 12:59:50;;;;;;;7.38;3.55;;;26.20;59.10;;;;;;4880722;29;20418;-90
2023/07/14 13:02:16;;;;;;;6.93;3.90;;;25.80;58.20;;;;;;4879752;29;20436;-88
2023/07/14 13:04:42;;;;;;;5.97;3.65;;;25.50;63.00;;;;;;4881696;29;20425;-90
2023/07/14 13:07:21;;;;;;;6.20;3.42;;;25.50;61.00;;;;;;4879701;29;20496;-92
2023/07/14 13:10:26;;;;;;;6.22;3.58;;;25.00;65.30;;;;;;4881721;29;20508;-90
2023/07/14 13:12:54;;;;;;;7.30;3.60;;;24.70;67.80;;;;;;4824821;29;20450;-92
2023/07/14 13:15:25;;;;;;;6.45;3.17;;;24.80;64.70;;;;;;4870629;29;20461;-91
2023/07/14 13:17:51;;;;;;;6.38;3.55;;;24.40;69.60;;;;;;4882223;29;20409;-93
2023/07/14 13:20:23;;;;;;;6.87;3.90;;;24.30;73.80;;;;;;4878966;29;20993;-87
2023/07/14 13:23:05;;;;;;;7.28;3.40;;;24.10;71.10;;;;;;4897013;29;20500;-90
2023/07/14 13:25:32;;;;;;;6.77;3.40;;;24.20;79.20;;;;;;4880329;29;20517;-90
2023/07/14 13:27:58;;;;;;;5.80;3.42;;;23.90;87.20;;;;;;4880465;29;20413;-91
2023/07/14 13:30:31;;;;;;;5.10;3.05;;;23.80;84.10;;;;;;4896643;29;20421;-90
2023/07/14 13:32:58;;;;;;;6.75;3.70;;;23.60;89.60;;;;;;4910522;29;20532;-92
2023/07/14 13:35:30;;;;;;;7.88;4.25;;;23.50;89.70;;;;;;4912867;29;20916;-92
2023/07/14 13:37:59;;;;;;;7.03;4.43;;;23.60;92.00;;;;;;4897840;29;20451;-91